sensor_id;sensor_type;location;lat;lon;timestamp;temperature;humidity
31263;DHT22;17892;52.080;9.006;2022-09-01T00:01:34;11.70;76.60
31263;DHT22;17892;52.080;9.006;2022-09-01T00:04:02;11.70;76.60
31263;DHT22;17892;52.080;9.006;2022-09-01T00:06:31;11.70;77.50
31263;DHT22;17892;52.080;9.006;2022-09-01T00:09:00;11.70;77.60
31263;DHT22;17892;52.080;9.006;2022-09-01T00:11:29;11.60;77.50
31263;DHT22;17892;52.080;9.006;2022-09-01T00:13:56;11.60;77.50
31263;DHT22;17892;52.080;9.006;2022-09-01T00:16:22;11.60;77.90
31263;DHT22;17892;52.080;9.006;2022-09-01T00:18:52;11.60;77.60
31263;DHT22;17892;52.080;9.006;2022-09-01T00:21:23;11.60;78.00
31263;DHT22;17892;52.080;9.006;2022-09-01T00:23:51;11.60;78.10
31263;DHT22;17892;52.080;9.006;2022-09-01T00:26:17;11.60;77.70
31263;DHT22;17892;52.080;9.006;2022-09-01T00:28:43;11.50;77.70
31263;DHT22;17892;52.080;9.006;2022-09-01T00:31:09;11.50;77.80
31263;DHT22;17892;52.080;9.006;2022-09-01T00:33:39;11.50;78.00
31263;DHT22;17892;52.080;9.006;2022-09-01T00:36:06;11.50;78.10
31263;DHT22;17892;52.080;9.006;2022-09-01T00:38:32;11.40;78.10
31263;DHT22;17892;52.080;9.006;2022-09-01T00:40:59;11.40;78.30
31263;DHT22;17892;52.080;9.006;2022-09-01T00:43:45;11.40;78.50
31263;DHT22;17892;52.080;9.006;2022-09-01T00:46:30;11.40;80.80
31263;DHT22;17892;52.080;9.006;2022-09-01T00:49:08;11.40;80.00
31263;DHT22;17892;52.080;9.006;2022-09-01T00:51:38;11.30;79.10
31263;DHT22;17892;52.080;9.006;2022-09-01T00:54:07;11.30;78.70
31263;DHT22;17892;52.080;9.006;2022-09-01T00:56:38;11.30;79.20
31263;DHT22;17892;52.080;9.006;2022-09-01T00:59:06;11.30;79.00
31263;DHT22;17892;52.080;9.006;2022-09-01T01:01:33;11.30;79.00
31263;DHT22;17892;52.080;9.006;2022-09-01T01:04:02;11.20;78.80
31263;DHT22;17892;52.080;9.006;2022-09-01T01:06:29;11.20;78.90
31263;DHT22;17892;52.080;9.006;2022-09-01T01:08:58;11.20;79.00
31263;DHT22;17892;52.080;9.006;2022-09-01T01:11:30;11.20;79.20
31263;DHT22;17892;52.080;9.006;2022-09-01T01:14:08;11.10;79.50
31263;DHT22;17892;52.080;9.006;2022-09-01T01:16:38;11.10;79.60
31263;DHT22;17892;52.080;9.006;2022-09-01T01:19:11;11.10;79.20
31263;DHT22;17892;52.080;9.006;2022-09-01T01:22:04;11.10;79.60
31263;DHT22;17892;52.080;9.006;2022-09-01T01:24:51;11.10;79.60
31263;DHT22;17892;52.080;9.006;2022-09-01T01:27:17;11.10;79.30
31263;DHT22;17892;52.080;9.006;2022-09-01T01:29:47;11.10;79.50
31263;DHT22;17892;52.080;9.006;2022-09-01T01:32:16;11.10;79.90
31263;DHT22;17892;52.080;9.006;2022-09-01T01:34:42;11.10;80.00
31263;DHT22;17892;52.080;9.006;2022-09-01T01:37:10;11.10;80.20
31263;DHT22;17892;52.080;9.006;2022-09-01T01:39:39;11.10;80.50
31263;DHT22;17892;52.080;9.006;2022-09-01T01:42:08;11.10;80.60
31263;DHT22;17892;52.080;9.006;2022-09-01T01:44:35;11.20;81.00
31263;DHT22;17892;52.080;9.006;2022-09-01T01:47:02;11.30;82.20
31263;DHT22;17892;52.080;9.006;2022-09-01T01:49:33;11.30;81.60
31263;DHT22;17892;52.080;9.006;2022-09-01T01:52:00;11.40;81.90
31263;DHT22;17892;52.080;9.006;2022-09-01T01:54:27;11.50;82.00
31263;DHT22;17892;52.080;9.006;2022-09-01T01:56:55;11.60;82.20
31263;DHT22;17892;52.080;9.006;2022-09-01T01:59:23;11.70;82.20
31263;DHT22;17892;52.080;9.006;2022-09-01T02:01:49;11.80;82.10
31263;DHT22;17892;52.080;9.006;2022-09-01T02:04:16;11.90;82.30
31263;DHT22;17892;52.080;9.006;2022-09-01T02:06:44;11.90;82.00
31263;DHT22;17892;52.080;9.006;2022-09-01T02:09:11;12.00;81.90
31263;DHT22;17892;52.080;9.006;2022-09-01T02:11:38;12.10;81.80
31263;DHT22;17892;52.080;9.006;2022-09-01T02:14:05;12.20;81.60
31263;DHT22;17892;52.080;9.006;2022-09-01T02:16:33;12.20;81.80
31263;DHT22;17892;52.080;9.006;2022-09-01T02:19:00;12.30;81.60
31263;DHT22;17892;52.080;9.006;2022-09-01T02:21:27;12.30;81.50
31263;DHT22;17892;52.080;9.006;2022-09-01T02:23:59;12.40;81.50
31263;DHT22;17892;52.080;9.006;2022-09-01T02:26:41;12.40;81.60
31263;DHT22;17892;52.080;9.006;2022-09-01T02:29:14;12.40;82.50
31263;DHT22;17892;52.080;9.006;2022-09-01T02:31:44;12.50;81.70
31263;DHT22;17892;52.080;9.006;2022-09-01T02:34:16;12.50;81.50
31263;DHT22;17892;52.080;9.006;2022-09-01T02:36:46;12.50;81.50
31263;DHT22;17892;52.080;9.006;2022-09-01T02:39:18;12.50;81.60
31263;DHT22;17892;52.080;9.006;2022-09-01T02:41:47;12.50;81.90
31263;DHT22;17892;52.080;9.006;2022-09-01T02:44:14;12.60;81.10
31263;DHT22;17892;52.080;9.006;2022-09-01T02:46:42;12.60;81.10
31263;DHT22;17892;52.080;9.006;2022-09-01T02:49:11;12.60;81.20
31263;DHT22;17892;52.080;9.006;2022-09-01T03:02:25;12.60;82.60
31263;DHT22;17892;52.080;9.006;2022-09-01T03:04:53;12.60;81.20
31263;DHT22;17892;52.080;9.006;2022-09-01T03:07:20;12.60;81.70
31263;DHT22;17892;52.080;9.006;2022-09-01T03:09:48;12.60;81.90
31263;DHT22;17892;52.080;9.006;2022-09-01T03:12:14;12.60;82.00
31263;DHT22;17892;52.080;9.006;2022-09-01T03:14:40;12.60;82.20
31263;DHT22;17892;52.080;9.006;2022-09-01T03:17:05;12.60;82.30
31263;DHT22;17892;52.080;9.006;2022-09-01T03:19:31;12.70;82.30
31263;DHT22;17892;52.080;9.006;2022-09-01T03:22:06;12.70;82.40
31263;DHT22;17892;52.080;9.006;2022-09-01T03:24:32;12.70;82.30
31263;DHT22;17892;52.080;9.006;2022-09-01T03:26:58;12.70;82.10
31263;DHT22;17892;52.080;9.006;2022-09-01T03:29:24;12.70;82.10
31263;DHT22;17892;52.080;9.006;2022-09-01T03:31:49;12.80;82.00
31263;DHT22;17892;52.080;9.006;2022-09-01T03:34:15;12.80;81.90
31263;DHT22;17892;52.080;9.006;2022-09-01T03:36:45;12.70;81.70
31263;DHT22;17892;52.080;9.006;2022-09-01T03:39:16;12.70;81.50
31263;DHT22;17892;52.080;9.006;2022-09-01T03:41:43;12.70;81.50
31263;DHT22;17892;52.080;9.006;2022-09-01T03:44:09;12.70;81.50
31263;DHT22;17892;52.080;9.006;2022-09-01T03:46:38;12.60;81.30
31263;DHT22;17892;52.080;9.006;2022-09-01T03:49:05;12.60;81.20
31263;DHT22;17892;52.080;9.006;2022-09-01T03:51:36;12.50;81.40
31263;DHT22;17892;52.080;9.006;2022-09-01T03:54:03;12.50;81.40
31263;DHT22;17892;52.080;9.006;2022-09-01T03:56:29;12.40;81.50
31263;DHT22;17892;52.080;9.006;2022-09-01T03:58:57;12.40;81.70
31263;DHT22;17892;52.080;9.006;2022-09-01T04:01:28;12.40;82.00
31263;DHT22;17892;52.080;9.006;2022-09-01T04:03:57;12.30;82.70
31263;DHT22;17892;52.080;9.006;2022-09-01T04:06:25;12.30;82.10
31263;DHT22;17892;52.080;9.006;2022-09-01T04:08:51;12.20;82.20
31263;DHT22;17892;52.080;9.006;2022-09-01T04:11:27;12.20;82.50
31263;DHT22;17892;52.080;9.006;2022-09-01T04:13:53;12.20;82.70
31263;DHT22;17892;52.080;9.006;2022-09-01T04:16:24;12.20;82.80
31263;DHT22;17892;52.080;9.006;2022-09-01T04:19:12;12.10;83.00
31263;DHT22;17892;52.080;9.006;2022-09-01T04:21:45;12.10;82.70
31263;DHT22;17892;52.080;9.006;2022-09-01T04:24:12;12.10;82.70
31263;DHT22;17892;52.080;9.006;2022-09-01T04:26:40;12.00;82.60
31263;DHT22;17892;52.080;9.006;2022-09-01T04:29:07;12.00;82.60
31263;DHT22;17892;52.080;9.006;2022-09-01T04:31:35;11.90;82.50
31263;DHT22;17892;52.080;9.006;2022-09-01T04:34:03;11.90;82.60
31263;DHT22;17892;52.080;9.006;2022-09-01T04:36:35;11.80;82.60
31263;DHT22;17892;52.080;9.006;2022-09-01T04:39:03;11.80;83.80
31263;DHT22;17892;52.080;9.006;2022-09-01T04:41:34;11.70;81.80
31263;DHT22;17892;52.080;9.006;2022-09-01T04:44:03;11.70;82.20
31263;DHT22;17892;52.080;9.006;2022-09-01T04:46:32;11.60;82.50
31263;DHT22;17892;52.080;9.006;2022-09-01T04:49:01;11.60;82.90
31263;DHT22;17892;52.080;9.006;2022-09-01T04:51:36;11.50;83.00
31263;DHT22;17892;52.080;9.006;2022-09-01T04:54:04;11.50;83.20
31263;DHT22;17892;52.080;9.006;2022-09-01T04:56:37;11.40;83.40
31263;DHT22;17892;52.080;9.006;2022-09-01T04:59:04;11.40;83.60
31263;DHT22;17892;52.080;9.006;2022-09-01T05:01:33;11.40;83.80
31263;DHT22;17892;52.080;9.006;2022-09-01T05:04:09;11.40;84.20
31263;DHT22;17892;52.080;9.006;2022-09-01T05:06:40;11.40;84.50
31263;DHT22;17892;52.080;9.006;2022-09-01T05:09:09;11.40;84.80
31263;DHT22;17892;52.080;9.006;2022-09-01T05:11:36;11.40;85.00
31263;DHT22;17892;52.080;9.006;2022-09-01T05:14:04;11.40;85.10
31263;DHT22;17892;52.080;9.006;2022-09-01T05:16:32;11.50;85.70
31263;DHT22;17892;52.080;9.006;2022-09-01T05:19:00;11.50;86.00
31263;DHT22;17892;52.080;9.006;2022-09-01T05:21:26;11.60;86.60
31263;DHT22;17892;52.080;9.006;2022-09-01T05:23:55;11.70;87.30
31263;DHT22;17892;52.080;9.006;2022-09-01T05:26:28;11.80;87.80
31263;DHT22;17892;52.080;9.006;2022-09-01T05:28:59;11.90;89.10
31263;DHT22;17892;52.080;9.006;2022-09-01T05:31:27;12.10;89.30
31263;DHT22;17892;52.080;9.006;2022-09-01T05:33:59;12.30;90.00
31263;DHT22;17892;52.080;9.006;2022-09-01T05:36:26;12.50;90.70
31263;DHT22;17892;52.080;9.006;2022-09-01T05:38:57;12.70;90.40
31263;DHT22;17892;52.080;9.006;2022-09-01T05:41:24;12.90;90.60
31263;DHT22;17892;52.080;9.006;2022-09-01T05:43:50;13.20;90.90
31263;DHT22;17892;52.080;9.006;2022-09-01T05:46:22;13.40;90.50
31263;DHT22;17892;52.080;9.006;2022-09-01T05:48:52;13.70;90.60
31263;DHT22;17892;52.080;9.006;2022-09-01T05:51:21;14.00;90.70
31263;DHT22;17892;52.080;9.006;2022-09-01T05:53:51;14.30;90.80
31263;DHT22;17892;52.080;9.006;2022-09-01T05:56:20;14.60;90.60
31263;DHT22;17892;52.080;9.006;2022-09-01T05:58:46;15.10;90.60
31263;DHT22;17892;52.080;9.006;2022-09-01T06:01:25;15.50;90.30
31263;DHT22;17892;52.080;9.006;2022-09-01T06:03:54;15.90;89.40
31263;DHT22;17892;52.080;9.006;2022-09-01T06:06:27;16.20;89.50
31263;DHT22;17892;52.080;9.006;2022-09-01T06:08:54;16.70;88.20
31263;DHT22;17892;52.080;9.006;2022-09-01T06:11:25;17.00;87.30
31263;DHT22;17892;52.080;9.006;2022-09-01T06:13:52;17.30;85.60
31263;DHT22;17892;52.080;9.006;2022-09-01T06:16:22;17.40;84.20
31263;DHT22;17892;52.080;9.006;2022-09-01T06:18:49;17.60;83.40
31263;DHT22;17892;52.080;9.006;2022-09-01T06:21:18;17.60;82.50
31263;DHT22;17892;52.080;9.006;2022-09-01T06:23:45;17.60;82.20
31263;DHT22;17892;52.080;9.006;2022-09-01T06:26:30;17.60;81.90
31263;DHT22;17892;52.080;9.006;2022-09-01T06:37:03;17.40;82.00
31263;DHT22;17892;52.080;9.006;2022-09-01T06:39:29;17.30;82.40
31263;DHT22;17892;52.080;9.006;2022-09-01T06:41:56;17.30;82.30
31263;DHT22;17892;52.080;9.006;2022-09-01T06:44:23;17.30;82.60
31263;DHT22;17892;52.080;9.006;2022-09-01T06:46:50;17.30;82.60
31263;DHT22;17892;52.080;9.006;2022-09-01T06:49:19;17.30;82.70
31263;DHT22;17892;52.080;9.006;2022-09-01T06:51:45;17.30;82.60
31263;DHT22;17892;52.080;9.006;2022-09-01T06:54:13;17.40;82.60
31263;DHT22;17892;52.080;9.006;2022-09-01T06:56:40;17.40;82.50
31263;DHT22;17892;52.080;9.006;2022-09-01T06:59:06;17.50;82.70
31263;DHT22;17892;52.080;9.006;2022-09-01T07:01:32;17.50;82.80
31263;DHT22;17892;52.080;9.006;2022-09-01T07:03:58;17.60;82.90
31263;DHT22;17892;52.080;9.006;2022-09-01T07:06:25;17.60;82.60
31263;DHT22;17892;52.080;9.006;2022-09-01T07:08:59;17.70;82.60
31263;DHT22;17892;52.080;9.006;2022-09-01T07:11:28;17.80;82.40
31263;DHT22;17892;52.080;9.006;2022-09-01T07:14:05;17.80;82.40
31263;DHT22;17892;52.080;9.006;2022-09-01T07:16:33;17.90;82.60
31263;DHT22;17892;52.080;9.006;2022-09-01T07:19:05;18.00;82.40
31263;DHT22;17892;52.080;9.006;2022-09-01T07:21:37;18.10;82.60
31263;DHT22;17892;52.080;9.006;2022-09-01T07:24:03;18.20;82.30
31263;DHT22;17892;52.080;9.006;2022-09-01T07:26:31;18.30;81.50
31263;DHT22;17892;52.080;9.006;2022-09-01T07:29:00;18.40;81.30
31263;DHT22;17892;52.080;9.006;2022-09-01T07:31:33;18.50;81.50
31263;DHT22;17892;52.080;9.006;2022-09-01T07:34:07;18.50;80.80
31263;DHT22;17892;52.080;9.006;2022-09-01T07:36:35;18.70;80.60
31263;DHT22;17892;52.080;9.006;2022-09-01T07:39:02;18.70;80.40
31263;DHT22;17892;52.080;9.006;2022-09-01T07:41:29;18.80;80.50
31263;DHT22;17892;52.080;9.006;2022-09-01T07:43:55;18.90;80.00
31263;DHT22;17892;52.080;9.006;2022-09-01T07:46:24;19.00;79.90
31263;DHT22;17892;52.080;9.006;2022-09-01T07:48:52;19.10;79.40
31263;DHT22;17892;52.080;9.006;2022-09-01T07:51:21;19.20;79.60
31263;DHT22;17892;52.080;9.006;2022-09-01T07:53:47;19.30;79.80
31263;DHT22;17892;52.080;9.006;2022-09-01T07:56:15;19.40;79.80
31263;DHT22;17892;52.080;9.006;2022-09-01T07:58:43;19.60;79.70
31263;DHT22;17892;52.080;9.006;2022-09-01T08:01:16;19.70;79.40
31263;DHT22;17892;52.080;9.006;2022-09-01T08:03:45;19.90;78.90
31263;DHT22;17892;52.080;9.006;2022-09-01T08:06:14;20.10;79.00
31263;DHT22;17892;52.080;9.006;2022-09-01T08:08:47;20.40;81.30
31263;DHT22;17892;52.080;9.006;2022-09-01T08:11:22;20.80;82.30
31263;DHT22;17892;52.080;9.006;2022-09-01T08:13:51;21.30;81.30
31263;DHT22;17892;52.080;9.006;2022-09-01T08:16:18;21.80;82.40
31263;DHT22;17892;52.080;9.006;2022-09-01T08:18:46;22.40;82.00
31263;DHT22;17892;52.080;9.006;2022-09-01T08:21:13;23.00;79.70
31263;DHT22;17892;52.080;9.006;2022-09-01T08:23:40;23.50;79.50
31263;DHT22;17892;52.080;9.006;2022-09-01T08:26:11;23.90;77.30
31263;DHT22;17892;52.080;9.006;2022-09-01T08:28:39;24.40;75.00
31263;DHT22;17892;52.080;9.006;2022-09-01T08:31:10;24.70;73.20
31263;DHT22;17892;52.080;9.006;2022-09-01T08:33:38;25.10;71.20
31263;DHT22;17892;52.080;9.006;2022-09-01T08:36:07;25.40;70.20
31263;DHT22;17892;52.080;9.006;2022-09-01T08:38:34;25.80;68.60
31263;DHT22;17892;52.080;9.006;2022-09-01T08:41:02;26.10;67.80
31263;DHT22;17892;52.080;9.006;2022-09-01T08:46:32;26.60;65.80
31263;DHT22;17892;52.080;9.006;2022-09-01T08:49:05;26.90;62.60
31263;DHT22;17892;52.080;9.006;2022-09-01T08:51:46;27.10;60.90
31263;DHT22;17892;52.080;9.006;2022-09-01T08:57:05;27.50;56.20
31263;DHT22;17892;52.080;9.006;2022-09-01T08:59:33;27.70;55.50
31263;DHT22;17892;52.080;9.006;2022-09-01T09:04:58;27.80;52.70
31263;DHT22;17892;52.080;9.006;2022-09-01T09:08:12;27.80;56.50
31263;DHT22;17892;52.080;9.006;2022-09-01T09:13:44;28.00;53.80
31263;DHT22;17892;52.080;9.006;2022-09-01T09:16:41;28.10;53.60
31263;DHT22;17892;52.080;9.006;2022-09-01T09:19:34;28.40;55.20
31263;DHT22;17892;52.080;9.006;2022-09-01T09:22:14;28.60;53.60
31263;DHT22;17892;52.080;9.006;2022-09-01T09:27:37;29.10;47.40
31263;DHT22;17892;52.080;9.006;2022-09-01T09:30:13;29.10;50.30
31263;DHT22;17892;52.080;9.006;2022-09-01T09:41:22;29.20;48.90
31263;DHT22;17892;52.080;9.006;2022-09-01T09:43:56;29.20;47.50
31263;DHT22;17892;52.080;9.006;2022-09-01T09:49:23;29.50;49.40
31263;DHT22;17892;52.080;9.006;2022-09-01T09:51:53;29.60;46.50
31263;DHT22;17892;52.080;9.006;2022-09-01T09:54:27;29.70;48.00
31263;DHT22;17892;52.080;9.006;2022-09-01T10:05:00;29.70;45.00
31263;DHT22;17892;52.080;9.006;2022-09-01T10:07:51;29.70;46.00
31263;DHT22;17892;52.080;9.006;2022-09-01T10:10:30;29.70;45.70
31263;DHT22;17892;52.080;9.006;2022-09-01T10:13:09;29.60;44.10
31263;DHT22;17892;52.080;9.006;2022-09-01T10:15:49;29.60;45.60
31263;DHT22;17892;52.080;9.006;2022-09-01T10:18:22;29.50;45.20
31263;DHT22;17892;52.080;9.006;2022-09-01T10:21:07;29.30;44.20
31263;DHT22;17892;52.080;9.006;2022-09-01T10:23:37;29.30;44.60
31263;DHT22;17892;52.080;9.006;2022-09-01T10:26:25;29.20;45.60
31263;DHT22;17892;52.080;9.006;2022-09-01T10:31:36;29.10;45.00
31263;DHT22;17892;52.080;9.006;2022-09-01T10:34:03;29.10;45.40
31263;DHT22;17892;52.080;9.006;2022-09-01T10:36:32;29.10;44.30
31263;DHT22;17892;52.080;9.006;2022-09-01T10:39:01;29.20;44.50
31263;DHT22;17892;52.080;9.006;2022-09-01T10:44:21;29.10;44.40
31263;DHT22;17892;52.080;9.006;2022-09-01T10:47:11;29.10;44.30
31263;DHT22;17892;52.080;9.006;2022-09-01T10:55:17;29.10;44.00
31263;DHT22;17892;52.080;9.006;2022-09-01T11:06:00;29.90;42.40
31263;DHT22;17892;52.080;9.006;2022-09-01T11:11:06;30.20;42.50
31263;DHT22;17892;52.080;9.006;2022-09-01T11:13:57;30.20;40.70
31263;DHT22;17892;52.080;9.006;2022-09-01T11:16:30;30.30;41.10
31263;DHT22;17892;52.080;9.006;2022-09-01T11:19:32;30.40;42.20
31263;DHT22;17892;52.080;9.006;2022-09-01T11:30:23;30.60;40.00
31263;DHT22;17892;52.080;9.006;2022-09-01T11:32:56;30.30;39.70
31263;DHT22;17892;52.080;9.006;2022-09-01T11:35:25;30.10;39.70
31263;DHT22;17892;52.080;9.006;2022-09-01T11:37:56;30.00;39.90
31263;DHT22;17892;52.080;9.006;2022-09-01T11:40:30;29.90;40.60
31263;DHT22;17892;52.080;9.006;2022-09-01T11:42:58;29.90;40.90
31263;DHT22;17892;52.080;9.006;2022-09-01T11:45:29;29.80;39.20
31263;DHT22;17892;52.080;9.006;2022-09-01T11:48:05;29.50;38.10
31263;DHT22;17892;52.080;9.006;2022-09-01T11:50:35;29.10;37.80
31263;DHT22;17892;52.080;9.006;2022-09-01T11:53:12;28.80;39.60
31263;DHT22;17892;52.080;9.006;2022-09-01T11:55:45;28.60;40.40
31263;DHT22;17892;52.080;9.006;2022-09-01T12:01:10;28.60;40.30
31263;DHT22;17892;52.080;9.006;2022-09-01T12:03:45;28.80;42.00
31263;DHT22;17892;52.080;9.006;2022-09-01T12:06:19;29.00;41.70
31263;DHT22;17892;52.080;9.006;2022-09-01T12:08:58;29.20;40.90
31263;DHT22;17892;52.080;9.006;2022-09-01T12:11:29;29.40;40.60
31263;DHT22;17892;52.080;9.006;2022-09-01T12:16:28;29.80;41.20
31263;DHT22;17892;52.080;9.006;2022-09-01T12:18:57;30.00;37.40
31263;DHT22;17892;52.080;9.006;2022-09-01T12:21:36;30.20;39.20
31263;DHT22;17892;52.080;9.006;2022-09-01T12:24:19;30.40;36.90
31263;DHT22;17892;52.080;9.006;2022-09-01T12:26:49;30.50;37.30
31263;DHT22;17892;52.080;9.006;2022-09-01T12:29:17;30.40;36.30
31263;DHT22;17892;52.080;9.006;2022-09-01T12:31:46;30.30;35.80
31263;DHT22;17892;52.080;9.006;2022-09-01T12:37:08;29.50;36.00
31263;DHT22;17892;52.080;9.006;2022-09-01T12:39:44;29.10;37.80
31263;DHT22;17892;52.080;9.006;2022-09-01T12:44:55;29.10;38.70
31263;DHT22;17892;52.080;9.006;2022-09-01T12:50:05;29.50;37.80
31263;DHT22;17892;52.080;9.006;2022-09-01T12:52:57;29.60;38.00
31263;DHT22;17892;52.080;9.006;2022-09-01T12:55:32;29.80;38.10
31263;DHT22;17892;52.080;9.006;2022-09-01T12:58:04;30.00;38.50
31263;DHT22;17892;52.080;9.006;2022-09-01T13:00:35;30.20;36.10
31263;DHT22;17892;52.080;9.006;2022-09-01T13:03:11;30.30;35.90
31263;DHT22;17892;52.080;9.006;2022-09-01T13:05:44;30.20;34.90
31263;DHT22;17892;52.080;9.006;2022-09-01T13:08:15;30.00;35.50
31263;DHT22;17892;52.080;9.006;2022-09-01T13:10:48;29.70;35.20
31263;DHT22;17892;52.080;9.006;2022-09-01T13:13:16;29.40;35.20
31263;DHT22;17892;52.080;9.006;2022-09-01T13:15:45;29.10;35.50
31263;DHT22;17892;52.080;9.006;2022-09-01T13:18:14;28.80;36.80
31263;DHT22;17892;52.080;9.006;2022-09-01T13:20:40;28.60;36.60
31263;DHT22;17892;52.080;9.006;2022-09-01T13:23:07;28.60;37.10
31263;DHT22;17892;52.080;9.006;2022-09-01T13:25:34;28.70;37.10
31263;DHT22;17892;52.080;9.006;2022-09-01T13:28:00;28.80;37.80
31263;DHT22;17892;52.080;9.006;2022-09-01T13:30:27;29.00;37.30
31263;DHT22;17892;52.080;9.006;2022-09-01T13:32:55;29.30;37.60
31263;DHT22;17892;52.080;9.006;2022-09-01T13:35:22;29.50;36.70
31263;DHT22;17892;52.080;9.006;2022-09-01T13:37:49;29.50;35.70
31263;DHT22;17892;52.080;9.006;2022-09-01T13:40:19;29.50;35.70
31263;DHT22;17892;52.080;9.006;2022-09-01T13:42:47;29.40;36.10
31263;DHT22;17892;52.080;9.006;2022-09-01T13:45:16;29.30;36.20
31263;DHT22;17892;52.080;9.006;2022-09-01T13:47:45;29.20;35.40
31263;DHT22;17892;52.080;9.006;2022-09-01T13:50:14;29.10;35.40
31263;DHT22;17892;52.080;9.006;2022-09-01T13:52:45;28.90;35.90
31263;DHT22;17892;52.080;9.006;2022-09-01T13:55:16;28.90;37.10
31263;DHT22;17892;52.080;9.006;2022-09-01T13:57:43;29.00;37.50
31263;DHT22;17892;52.080;9.006;2022-09-01T14:00:12;29.10;37.30
31263;DHT22;17892;52.080;9.006;2022-09-01T14:02:42;29.30;37.40
31263;DHT22;17892;52.080;9.006;2022-09-01T14:05:14;29.60;37.10
31263;DHT22;17892;52.080;9.006;2022-09-01T14:07:41;29.70;36.10
31263;DHT22;17892;52.080;9.006;2022-09-01T14:10:07;30.00;36.10
31263;DHT22;17892;52.080;9.006;2022-09-01T14:12:33;30.10;36.00
31263;DHT22;17892;52.080;9.006;2022-09-01T14:14:59;30.30;36.40
31263;DHT22;17892;52.080;9.006;2022-09-01T14:17:25;30.40;35.90
31263;DHT22;17892;52.080;9.006;2022-09-01T14:19:51;30.50;35.00
31263;DHT22;17892;52.080;9.006;2022-09-01T14:22:17;30.50;34.50
31263;DHT22;17892;52.080;9.006;2022-09-01T14:24:43;30.40;34.10
31263;DHT22;17892;52.080;9.006;2022-09-01T14:27:10;30.20;34.00
31263;DHT22;17892;52.080;9.006;2022-09-01T14:29:36;29.90;33.80
31263;DHT22;17892;52.080;9.006;2022-09-01T14:32:02;29.70;34.60
31263;DHT22;17892;52.080;9.006;2022-09-01T14:34:27;29.60;34.80
31263;DHT22;17892;52.080;9.006;2022-09-01T14:36:55;29.60;35.80
31263;DHT22;17892;52.080;9.006;2022-09-01T14:39:22;29.70;35.10
31263;DHT22;17892;52.080;9.006;2022-09-01T14:41:48;29.70;35.10
31263;DHT22;17892;52.080;9.006;2022-09-01T14:44:14;29.90;35.60
31263;DHT22;17892;52.080;9.006;2022-09-01T14:46:40;30.00;35.50
31263;DHT22;17892;52.080;9.006;2022-09-01T14:49:06;30.10;35.00
31263;DHT22;17892;52.080;9.006;2022-09-01T14:51:33;30.20;34.90
31263;DHT22;17892;52.080;9.006;2022-09-01T14:53:59;30.30;34.90
31263;DHT22;17892;52.080;9.006;2022-09-01T14:56:24;30.40;34.40
31263;DHT22;17892;52.080;9.006;2022-09-01T14:58:51;30.40;34.00
31263;DHT22;17892;52.080;9.006;2022-09-01T15:01:23;30.40;34.10
31263;DHT22;17892;52.080;9.006;2022-09-01T15:03:50;30.40;33.60
31263;DHT22;17892;52.080;9.006;2022-09-01T15:06:17;30.40;33.70
31263;DHT22;17892;52.080;9.006;2022-09-01T15:08:45;30.30;33.40
31263;DHT22;17892;52.080;9.006;2022-09-01T15:11:14;30.30;33.20
31263;DHT22;17892;52.080;9.006;2022-09-01T15:13:42;30.40;33.40
31263;DHT22;17892;52.080;9.006;2022-09-01T15:16:20;30.30;33.80
31263;DHT22;17892;52.080;9.006;2022-09-01T15:18:47;30.40;33.50
31263;DHT22;17892;52.080;9.006;2022-09-01T15:21:24;30.40;34.20
31263;DHT22;17892;52.080;9.006;2022-09-01T15:23:56;30.40;33.90
31263;DHT22;17892;52.080;9.006;2022-09-01T15:26:22;30.40;33.60
31263;DHT22;17892;52.080;9.006;2022-09-01T15:28:48;30.40;33.10
31263;DHT22;17892;52.080;9.006;2022-09-01T15:31:16;30.40;33.00
31263;DHT22;17892;52.080;9.006;2022-09-01T15:33:44;30.30;32.70
31263;DHT22;17892;52.080;9.006;2022-09-01T15:36:15;30.20;32.90
31263;DHT22;17892;52.080;9.006;2022-09-01T15:38:43;30.20;33.00
31263;DHT22;17892;52.080;9.006;2022-09-01T15:41:15;30.10;33.60
31263;DHT22;17892;52.080;9.006;2022-09-01T15:43:41;30.10;32.60
31263;DHT22;17892;52.080;9.006;2022-09-01T15:46:07;30.00;33.10
31263;DHT22;17892;52.080;9.006;2022-09-01T15:48:33;30.00;33.20
31263;DHT22;17892;52.080;9.006;2022-09-01T15:51:30;30.00;33.40
31263;DHT22;17892;52.080;9.006;2022-09-01T15:54:15;30.00;33.20
31263;DHT22;17892;52.080;9.006;2022-09-01T15:56:42;29.90;33.30
31263;DHT22;17892;52.080;9.006;2022-09-01T15:59:09;29.90;33.10
31263;DHT22;17892;52.080;9.006;2022-09-01T16:01:38;29.80;32.70
31263;DHT22;17892;52.080;9.006;2022-09-01T16:04:07;29.80;33.40
31263;DHT22;17892;52.080;9.006;2022-09-01T16:06:36;29.70;33.10
31263;DHT22;17892;52.080;9.006;2022-09-01T16:09:04;29.70;33.30
31263;DHT22;17892;52.080;9.006;2022-09-01T16:11:31;29.50;32.90
31263;DHT22;17892;52.080;9.006;2022-09-01T16:13:56;29.30;33.00
31263;DHT22;17892;52.080;9.006;2022-09-01T16:16:37;29.10;33.60
31263;DHT22;17892;52.080;9.006;2022-09-01T16:22:16;28.90;34.20
31263;DHT22;17892;52.080;9.006;2022-09-01T16:24:48;28.80;34.00
31263;DHT22;17892;52.080;9.006;2022-09-01T16:27:19;28.70;34.30
31263;DHT22;17892;52.080;9.006;2022-09-01T16:29:55;28.70;34.20
31263;DHT22;17892;52.080;9.006;2022-09-01T16:32:23;28.50;34.10
31263;DHT22;17892;52.080;9.006;2022-09-01T16:34:50;28.30;33.90
31263;DHT22;17892;52.080;9.006;2022-09-01T16:40:07;27.70;34.60
31263;DHT22;17892;52.080;9.006;2022-09-01T16:42:55;27.40;34.90
31263;DHT22;17892;52.080;9.006;2022-09-01T16:51:32;26.40;36.20
31263;DHT22;17892;52.080;9.006;2022-09-01T16:59:58;25.50;37.00
31263;DHT22;17892;52.080;9.006;2022-09-01T17:05:27;24.90;37.90
31263;DHT22;17892;52.080;9.006;2022-09-01T17:08:22;24.70;37.80
31263;DHT22;17892;52.080;9.006;2022-09-01T17:10:57;24.50;38.90
31263;DHT22;17892;52.080;9.006;2022-09-01T17:13:43;24.30;38.60
31263;DHT22;17892;52.080;9.006;2022-09-01T17:16:21;24.10;38.90
31263;DHT22;17892;52.080;9.006;2022-09-01T17:19:04;23.90;39.10
31263;DHT22;17892;52.080;9.006;2022-09-01T17:21:37;23.80;39.90
31263;DHT22;17892;52.080;9.006;2022-09-01T17:26:58;23.50;40.40
31263;DHT22;17892;52.080;9.006;2022-09-01T17:29:48;23.40;39.90
31263;DHT22;17892;52.080;9.006;2022-09-01T17:53:40;22.40;41.20
31263;DHT22;17892;52.080;9.006;2022-09-01T17:55:54;22.30;41.60
31263;DHT22;17892;52.080;9.006;2022-09-01T18:09:53;21.60;43.10
31263;DHT22;17892;52.080;9.006;2022-09-01T18:12:26;21.40;42.90
31263;DHT22;17892;52.080;9.006;2022-09-01T18:15:01;21.20;43.20
31263;DHT22;17892;52.080;9.006;2022-09-01T18:17:45;21.10;44.00
31263;DHT22;17892;52.080;9.006;2022-09-01T18:20:43;20.90;44.30
31263;DHT22;17892;52.080;9.006;2022-09-01T18:23:14;20.70;45.80
31263;DHT22;17892;52.080;9.006;2022-09-01T18:28:15;20.30;45.60